createdAt,value
2023-05-25T00:00:32.520Z,2.20
2023-05-25T00:03:04.544Z,2.40
2023-05-25T00:05:37.591Z,2.38
2023-05-25T00:08:09.377Z,2.20
2023-05-25T00:10:41.516Z,2.35
2023-05-25T00:13:13.296Z,2.25
2023-05-25T00:15:45.263Z,2.40
2023-05-25T00:18:17.267Z,2.30
2023-05-25T00:20:49.446Z,2.20
2023-05-25T00:23:21.511Z,2.50
2023-05-25T00:25:53.423Z,2.40
2023-05-25T00:28:25.330Z,2.15
2023-05-25T00:30:57.307Z,2.20
2023-05-25T00:33:29.273Z,2.30
2023-05-25T00:36:01.215Z,2.20
2023-05-25T00:38:33.012Z,2.38
2023-05-25T00:41:06.023Z,1.85
2023-05-25T00:43:37.834Z,1.77
2023-05-25T00:46:10.694Z,2.35
2023-05-25T00:48:44.165Z,1.95
2023-05-25T00:51:16.225Z,2.08
2023-05-25T00:53:47.980Z,2.10
2023-05-25T00:56:23.266Z,1.65
2023-05-25T00:58:55.849Z,1.77
2023-05-25T01:01:27.811Z,2.00
2023-05-25T01:03:59.705Z,2.20
2023-05-25T01:06:32.142Z,1.92
2023-05-25T01:09:05.601Z,2.20
2023-05-25T01:11:39.044Z,2.00
2023-05-25T01:14:11.172Z,2.05
2023-05-25T01:16:43.043Z,2.40
2023-05-25T01:19:15.165Z,2.00
2023-05-25T01:22:05.337Z,2.50
2023-05-25T01:24:45.846Z,2.08
2023-05-25T01:27:28.189Z,2.15
2023-05-25T01:30:00.287Z,1.92
2023-05-25T01:32:32.590Z,2.10
2023-05-25T01:35:06.045Z,2.90
2023-05-25T01:37:42.043Z,2.22
2023-05-25T01:40:14.674Z,2.20
2023-05-25T01:42:46.489Z,2.10
2023-05-25T01:45:18.339Z,1.90
2023-05-25T01:48:13.532Z,2.00
2023-05-25T01:50:58.245Z,2.20
2023-05-25T01:53:37.090Z,1.90
2023-05-25T01:56:09.991Z,1.85
2023-05-25T01:58:45.719Z,2.92
2023-05-25T02:01:18.436Z,1.77
2023-05-25T02:03:51.282Z,2.03
2023-05-25T02:06:23.170Z,2.40
2023-05-25T02:08:54.928Z,2.05
2023-05-25T02:11:27.777Z,1.60
2023-05-25T02:13:59.698Z,2.03
2023-05-25T02:16:33.806Z,2.17
2023-05-25T02:19:05.992Z,2.37
2023-05-25T02:21:38.326Z,2.20
2023-05-25T02:24:10.555Z,2.00
2023-05-25T02:26:42.523Z,1.92
2023-05-25T02:29:14.374Z,2.30
2023-05-25T02:31:46.358Z,2.30
2023-05-25T02:34:18.236Z,2.08
2023-05-25T02:36:50.964Z,2.30
2023-05-25T02:39:22.803Z,2.50
2023-05-25T02:41:54.824Z,2.30
2023-05-25T02:44:26.623Z,2.27
2023-05-25T02:46:58.446Z,2.47
2023-05-25T02:49:30.313Z,3.67
2023-05-25T02:52:02.132Z,2.45
2023-05-25T02:54:33.970Z,2.17
2023-05-25T02:57:06.395Z,2.60
2023-05-25T02:59:38.647Z,2.43
2023-05-25T03:02:12.048Z,2.10
2023-05-25T03:04:45.905Z,2.30
2023-05-25T03:07:17.715Z,2.10
2023-05-25T03:09:49.676Z,2.33
2023-05-25T03:12:21.517Z,2.23
2023-05-25T03:14:55.731Z,2.33
2023-05-25T03:17:28.341Z,2.43
2023-05-25T03:20:00.526Z,2.73
2023-05-25T03:22:32.829Z,2.83
2023-05-25T03:25:05.308Z,2.50
2023-05-25T03:27:37.256Z,2.60
2023-05-25T03:30:10.621Z,2.73
2023-05-25T03:32:42.607Z,2.70
2023-05-25T03:35:15.168Z,3.03
2023-05-25T03:37:47.257Z,2.70
2023-05-25T03:40:19.228Z,2.80
2023-05-25T03:42:51.466Z,2.70
2023-05-25T03:45:23.273Z,2.73
2023-05-25T03:47:56.282Z,2.73
2023-05-25T03:50:28.395Z,2.97
2023-05-25T03:53:00.550Z,3.50
2023-05-25T03:55:32.548Z,2.90
2023-05-25T03:58:04.434Z,3.20
2023-05-25T04:00:37.008Z,3.13
2023-05-25T04:03:11.069Z,2.70
2023-05-25T04:05:43.303Z,2.87
2023-05-25T04:08:18.098Z,3.20
2023-05-25T04:10:50.045Z,3.50
2023-05-25T04:13:21.823Z,4.20
2023-05-25T04:15:53.599Z,3.10
2023-05-25T04:18:33.709Z,3.37
2023-05-25T04:25:42.419Z,3.33
2023-05-25T04:28:14.605Z,3.40
2023-05-25T04:31:09.247Z,3.37
2023-05-25T04:33:51.416Z,3.03
2023-05-25T04:36:32.756Z,3.63
2023-05-25T04:39:07.569Z,3.60
2023-05-25T04:41:43.683Z,3.07
2023-05-25T04:44:16.097Z,3.27
2023-05-25T04:46:52.346Z,3.43
2023-05-25T04:49:29.921Z,3.93
2023-05-25T04:52:01.851Z,2.77
2023-05-25T04:54:35.758Z,2.63
2023-05-25T04:57:07.944Z,2.73
2023-05-25T04:59:40.098Z,2.70
2023-05-25T05:02:12.295Z,2.47
2023-05-25T05:04:44.142Z,2.70
2023-05-25T05:07:15.914Z,2.97
2023-05-25T05:09:48.173Z,2.33
2023-05-25T05:12:20.453Z,2.33
2023-05-25T05:14:56.125Z,2.33
2023-05-25T05:17:30.743Z,2.40
2023-05-25T05:20:07.892Z,2.40
2023-05-25T05:22:39.921Z,2.57
2023-05-25T05:25:12.392Z,2.27
2023-05-25T05:27:44.135Z,2.10
2023-05-25T05:30:23.948Z,2.27
2023-05-25T05:32:55.951Z,2.20
2023-05-25T05:35:31.658Z,2.30
2023-05-25T05:38:12.777Z,1.95
2023-05-25T05:40:45.377Z,1.95
2023-05-25T05:43:17.750Z,2.30
2023-05-25T05:45:49.670Z,2.23
2023-05-25T05:48:21.648Z,2.00
2023-05-25T05:50:54.711Z,2.17
2023-05-25T05:53:26.643Z,1.80
2023-05-25T05:55:59.852Z,1.95
2023-05-25T05:58:32.580Z,1.80
2023-05-25T06:01:06.607Z,1.80
2023-05-25T06:03:38.801Z,2.00
2023-05-25T06:06:11.551Z,2.25
2023-05-25T06:08:43.905Z,1.90
2023-05-25T06:11:15.806Z,2.05
2023-05-25T06:13:47.831Z,2.05
2023-05-25T06:16:20.435Z,1.67
2023-05-25T06:18:52.737Z,1.85
2023-05-25T06:21:24.726Z,1.65
2023-05-25T06:23:59.280Z,1.60
2023-05-25T06:26:32.368Z,1.98
2023-05-25T06:29:04.380Z,1.85
2023-05-25T06:31:37.594Z,1.77
2023-05-25T06:34:09.452Z,1.92
2023-05-25T06:36:41.935Z,1.88
2023-05-25T06:39:15.107Z,2.63
2023-05-25T06:41:48.084Z,1.83
2023-05-25T06:44:30.928Z,2.22
2023-05-25T06:47:07.266Z,1.80
2023-05-25T06:49:39.221Z,1.58
2023-05-25T06:52:11.299Z,1.80
2023-05-25T06:54:43.170Z,2.20
2023-05-25T06:57:15.021Z,2.22
2023-05-25T06:59:46.838Z,1.70
2023-05-25T07:02:20.911Z,1.80
2023-05-25T07:04:53.261Z,1.55
2023-05-25T07:07:25.441Z,1.70
2023-05-25T07:09:57.261Z,1.88
2023-05-25T07:12:29.355Z,1.77
2023-05-25T07:15:01.248Z,1.70
2023-05-25T07:17:33.113Z,1.80
2023-05-25T07:20:06.307Z,1.80
2023-05-25T07:22:38.353Z,1.80
2023-05-25T07:25:10.296Z,2.13
2023-05-25T07:27:43.106Z,1.67
2023-05-25T07:30:14.955Z,2.13
2023-05-25T07:32:47.171Z,1.85
2023-05-25T07:35:18.997Z,1.75
2023-05-25T07:38:00.697Z,1.92
2023-05-25T07:40:32.829Z,1.60
2023-05-25T07:43:07.422Z,1.45
2023-05-25T07:45:40.380Z,1.92
2023-05-25T07:48:12.818Z,1.65
2023-05-25T07:50:45.645Z,1.65
2023-05-25T07:53:17.781Z,1.40
2023-05-25T07:55:49.653Z,1.75
2023-05-25T07:58:21.583Z,1.67
2023-05-25T08:00:53.635Z,1.45
2023-05-25T08:03:39.536Z,1.58
2023-05-25T08:06:17.800Z,1.52
2023-05-25T08:08:50.139Z,1.75
2023-05-25T08:11:24.248Z,1.90
2023-05-25T08:13:56.299Z,1.65
2023-05-25T08:16:28.297Z,1.67
2023-05-25T08:19:01.775Z,1.30
2023-05-25T08:21:35.283Z,1.60
2023-05-25T08:24:08.486Z,1.83
2023-05-25T08:26:53.696Z,1.67
2023-05-25T08:29:26.009Z,1.58
2023-05-25T08:31:58.262Z,1.70
2023-05-25T08:34:30.068Z,1.85
2023-05-25T08:37:01.832Z,1.70
2023-05-25T08:39:34.914Z,1.48
2023-05-25T08:42:07.507Z,1.45
2023-05-25T08:44:39.518Z,1.67
2023-05-25T08:47:11.940Z,1.67
2023-05-25T08:49:44.958Z,1.52
2023-05-25T08:52:21.257Z,1.50
2023-05-25T08:54:54.573Z,1.58
2023-05-25T08:57:31.600Z,1.63
2023-05-25T09:00:11.254Z,1.52
2023-05-25T09:02:51.729Z,2.10
2023-05-25T09:05:23.889Z,1.60
2023-05-25T09:07:56.008Z,1.80
2023-05-25T09:10:28.060Z,1.80
2023-05-25T09:15:32.489Z,1.63
2023-05-25T09:18:05.368Z,1.65
2023-05-25T09:20:37.457Z,1.70
2023-05-25T09:23:10.027Z,1.40
2023-05-25T09:25:41.969Z,1.42
2023-05-25T09:28:26.237Z,1.38
2023-05-25T09:30:59.315Z,1.58
2023-05-25T09:33:31.985Z,1.50
2023-05-25T09:36:04.404Z,1.77
2023-05-25T09:38:36.449Z,1.70
2023-05-25T09:41:08.768Z,1.60
2023-05-25T09:43:44.494Z,1.48
2023-05-25T09:46:21.089Z,1.45
2023-05-25T09:48:53.620Z,1.67
2023-05-25T09:51:26.220Z,1.73
2023-05-25T09:53:58.278Z,1.42
2023-05-25T09:56:33.898Z,1.60
2023-05-25T09:59:05.726Z,2.10
2023-05-25T10:01:37.672Z,2.13
2023-05-25T10:04:09.529Z,2.00
2023-05-25T10:06:41.591Z,1.58
2023-05-25T10:09:14.668Z,1.77
2023-05-25T10:11:46.825Z,1.48
2023-05-25T10:14:22.641Z,1.50
2023-05-25T10:16:55.481Z,1.40
2023-05-25T10:19:27.841Z,1.90
2023-05-25T10:22:07.791Z,1.90
2023-05-25T10:24:42.723Z,1.35
2023-05-25T10:27:26.919Z,1.80
2023-05-25T10:29:59.965Z,1.63
2023-05-25T10:32:31.955Z,1.38
2023-05-25T10:35:05.307Z,1.30
2023-05-25T10:37:37.054Z,1.20
2023-05-25T10:40:09.463Z,1.48
2023-05-25T10:42:41.566Z,1.40
2023-05-25T10:45:13.504Z,1.80
2023-05-25T10:47:46.721Z,1.52
2023-05-25T10:50:28.753Z,1.75
2023-05-25T10:53:06.439Z,1.90
2023-05-25T10:56:05.666Z,1.65
2023-05-25T10:58:38.425Z,1.42
2023-05-25T11:01:11.850Z,1.63
2023-05-25T11:03:44.068Z,1.90
2023-05-25T11:06:23.135Z,1.70
2023-05-25T11:08:55.907Z,1.70
2023-05-25T11:11:43.248Z,1.58
2023-05-25T11:14:30.963Z,1.63
2023-05-25T11:17:10.599Z,1.13
2023-05-25T11:19:43.767Z,1.55
2023-05-25T11:22:23.334Z,1.33
2023-05-25T11:24:55.081Z,1.42
2023-05-25T11:27:31.025Z,1.42
2023-05-25T11:30:02.847Z,1.52
2023-05-25T11:32:39.713Z,1.42
2023-05-25T11:35:11.694Z,1.85
2023-05-25T11:37:49.681Z,1.50
2023-05-25T11:40:25.360Z,1.30
2023-05-25T11:43:00.607Z,1.20
2023-05-25T11:45:34.246Z,1.42
2023-05-25T11:48:06.360Z,1.92
2023-05-25T11:50:38.192Z,1.45
2023-05-25T11:53:11.508Z,1.50
2023-05-25T11:55:50.914Z,1.80
2023-05-25T11:58:23.954Z,1.63
2023-05-25T12:00:55.783Z,1.60
2023-05-25T12:03:32.022Z,1.25
2023-05-25T12:06:06.050Z,1.38
2023-05-25T12:08:38.023Z,1.65
2023-05-25T12:11:10.003Z,1.50
2023-05-25T12:13:41.841Z,1.30
2023-05-25T12:16:13.835Z,1.27
2023-05-25T12:18:46.004Z,1.25
2023-05-25T12:21:18.270Z,1.50
2023-05-25T12:23:50.929Z,1.65
2023-05-25T12:26:23.576Z,1.52
2023-05-25T12:29:02.272Z,1.60
2023-05-25T12:31:38.646Z,1.45
2023-05-25T12:34:14.508Z,1.42
2023-05-25T12:36:53.179Z,1.17
2023-05-25T12:39:31.248Z,1.42
2023-05-25T12:42:03.381Z,2.10
2023-05-25T12:44:36.499Z,1.55
2023-05-25T12:47:20.818Z,1.42
2023-05-25T12:50:12.684Z,1.30
2023-05-25T12:52:46.599Z,1.90
2023-05-25T12:55:27.434Z,1.25
2023-05-25T12:58:03.491Z,1.42
2023-05-25T13:00:37.281Z,1.33
2023-05-25T13:03:09.454Z,1.40
2023-05-25T13:05:41.556Z,1.50
2023-05-25T13:08:13.928Z,1.80
2023-05-25T13:10:49.230Z,1.73
2023-05-25T13:13:21.611Z,1.13
2023-05-25T13:15:53.936Z,1.13
2023-05-25T13:18:26.684Z,1.35
2023-05-25T13:20:59.411Z,1.25
2023-05-25T13:23:31.683Z,1.20
2023-05-25T13:26:04.652Z,1.02
2023-05-25T13:28:36.766Z,1.38
2023-05-25T13:31:09.312Z,1.23
2023-05-25T13:33:41.090Z,2.20
2023-05-25T13:36:13.403Z,1.23
2023-05-25T13:38:45.482Z,1.27
2023-05-25T13:41:18.660Z,1.13
2023-05-25T13:43:50.477Z,1.40
2023-05-25T13:46:34.268Z,1.45
2023-05-25T13:49:07.311Z,1.63
2023-05-25T13:51:39.514Z,1.13
2023-05-25T13:54:12.889Z,1.70
2023-05-25T13:56:44.913Z,1.17
2023-05-25T13:59:16.935Z,1.13
2023-05-25T14:01:48.920Z,1.52
2023-05-25T14:04:21.319Z,1.42
2023-05-25T14:06:53.157Z,1.25
2023-05-25T14:09:26.297Z,1.30
2023-05-25T14:11:58.300Z,1.63
2023-05-25T14:14:32.678Z,1.30
2023-05-25T14:17:04.969Z,1.15
2023-05-25T14:19:37.909Z,1.20
2023-05-25T14:22:13.919Z,1.35
2023-05-25T14:24:46.650Z,1.27
2023-05-25T14:27:21.378Z,1.50
2023-05-25T14:29:53.676Z,1.15
2023-05-25T14:32:26.913Z,1.42
2023-05-25T14:34:58.781Z,1.40
2023-05-25T14:37:30.660Z,1.80
2023-05-25T14:40:02.547Z,1.60
2023-05-25T14:42:34.493Z,1.33
2023-05-25T14:45:08.727Z,1.30
2023-05-25T14:47:43.166Z,1.40
2023-05-25T14:50:15.118Z,1.45
2023-05-25T14:52:47.212Z,1.48
2023-05-25T14:55:19.114Z,1.60
2023-05-25T14:57:50.918Z,1.55
2023-05-25T15:00:22.815Z,1.55
2023-05-25T15:02:54.742Z,1.58
2023-05-25T15:05:26.969Z,1.60
2023-05-25T15:07:59.334Z,2.25
2023-05-25T15:10:31.207Z,1.60
2023-05-25T15:13:03.021Z,1.60
2023-05-25T15:15:34.844Z,1.27
2023-05-25T15:18:09.304Z,1.73
2023-05-25T15:20:41.310Z,1.67
2023-05-25T15:23:13.232Z,1.38
2023-05-25T15:25:45.113Z,1.23
2023-05-25T15:28:17.659Z,1.65
2023-05-25T15:30:49.829Z,1.50
2023-05-25T15:33:22.976Z,1.70
2023-05-25T15:35:57.741Z,1.55
2023-05-25T15:38:29.763Z,1.58
2023-05-25T15:41:01.743Z,1.42
2023-05-25T15:43:33.684Z,1.80
2023-05-25T15:46:05.643Z,1.83
2023-05-25T15:48:37.609Z,1.60
2023-05-25T15:51:11.131Z,1.63
2023-05-25T15:53:43.078Z,1.98
2023-05-25T15:56:15.115Z,1.73
2023-05-25T15:58:49.357Z,1.40
2023-05-25T16:01:21.708Z,1.50
2023-05-25T16:03:54.303Z,1.45
2023-05-25T16:06:26.255Z,1.40
2023-05-25T16:08:58.940Z,1.60
2023-05-25T16:11:33.146Z,1.90
2023-05-25T16:14:05.275Z,1.52
2023-05-25T16:16:40.444Z,2.05
2023-05-25T16:19:14.097Z,1.52
2023-05-25T16:21:46.527Z,1.85
2023-05-25T16:24:18.542Z,1.50
2023-05-25T16:26:50.574Z,1.98
2023-05-25T16:29:22.652Z,1.85
2023-05-25T16:31:55.563Z,1.45
2023-05-25T16:34:27.381Z,1.30
2023-05-25T16:36:59.597Z,2.28
2023-05-25T16:39:31.552Z,1.90
2023-05-25T16:42:03.751Z,1.60
2023-05-25T16:44:35.881Z,1.52
2023-05-25T16:47:07.696Z,1.30
2023-05-25T16:49:39.647Z,1.45
2023-05-25T16:52:11.621Z,2.05
2023-05-25T16:54:43.430Z,2.08
2023-05-25T16:57:15.203Z,1.73
2023-05-25T16:59:47.050Z,1.67
2023-05-25T17:02:19.121Z,1.58
2023-05-25T17:04:50.979Z,1.52
2023-05-25T17:07:22.774Z,1.33
2023-05-25T17:09:54.614Z,1.55
2023-05-25T17:12:26.858Z,1.60
2023-05-25T17:14:58.684Z,1.52
2023-05-25T17:17:31.489Z,2.00
2023-05-25T17:20:04.255Z,1.40
2023-05-25T17:22:37.314Z,1.80
2023-05-25T17:25:09.718Z,1.20
2023-05-25T17:27:41.661Z,1.70
2023-05-25T17:30:13.791Z,1.58
2023-05-25T17:32:45.672Z,1.50
2023-05-25T17:35:17.682Z,1.67
2023-05-25T17:37:49.579Z,1.52
2023-05-25T17:40:21.686Z,1.55
2023-05-25T17:42:53.637Z,1.42
2023-05-25T17:45:25.644Z,1.90
2023-05-25T17:47:58.388Z,1.20
2023-05-25T17:50:30.962Z,1.33
2023-05-25T17:53:02.796Z,2.30
2023-05-25T17:55:34.601Z,2.28
2023-05-25T17:58:06.378Z,1.95
2023-05-25T18:00:38.338Z,2.08
2023-05-25T18:03:10.305Z,1.70
2023-05-25T18:05:42.518Z,1.52
2023-05-25T18:08:14.596Z,1.23
2023-05-25T18:10:47.196Z,1.45
2023-05-25T18:13:19.078Z,1.40
2023-05-25T18:15:50.813Z,1.10
2023-05-25T18:18:24.793Z,1.15
2023-05-25T18:20:56.790Z,1.30
2023-05-25T18:23:28.586Z,1.25
2023-05-25T18:26:00.403Z,1.42
2023-05-25T18:28:32.536Z,6.30
2023-05-25T18:31:04.681Z,1.65
2023-05-25T18:33:36.704Z,1.70
2023-05-25T18:36:08.562Z,1.25
2023-05-25T18:38:40.532Z,1.27
2023-05-25T18:41:12.536Z,1.65
2023-05-25T18:43:44.506Z,1.25
2023-05-25T18:46:16.889Z,1.30
2023-05-25T18:48:49.049Z,1.40
2023-05-25T18:51:23.219Z,1.27
2023-05-25T18:53:55.105Z,1.33
2023-05-25T18:56:27.540Z,1.23
2023-05-25T18:58:59.463Z,1.10
2023-05-25T19:01:31.599Z,1.10
2023-05-25T19:04:06.654Z,1.25
2023-05-25T19:06:38.681Z,1.45
2023-05-25T19:09:12.575Z,0.95
2023-05-25T19:11:44.453Z,1.23
2023-05-25T19:14:16.253Z,1.20
2023-05-25T19:16:49.144Z,1.73
2023-05-25T19:19:21.126Z,1.38
2023-05-25T19:21:53.964Z,1.35
2023-05-25T19:24:25.807Z,1.40
2023-05-25T19:26:57.583Z,1.65
2023-05-25T19:29:29.574Z,1.00
2023-05-25T19:32:01.699Z,1.15
2023-05-25T19:34:33.581Z,1.30
2023-05-25T19:37:11.548Z,2.40
2023-05-25T19:39:43.800Z,1.50
2023-05-25T19:42:15.728Z,1.35
2023-05-25T19:44:47.672Z,1.60
2023-05-25T19:47:19.510Z,1.20
2023-05-25T19:49:51.969Z,1.33
2023-05-25T19:52:23.898Z,1.40
2023-05-25T19:54:55.767Z,1.17
2023-05-25T19:57:27.854Z,1.37
2023-05-25T19:59:59.682Z,1.50
2023-05-25T20:02:32.117Z,1.40
2023-05-25T20:05:04.453Z,1.30
2023-05-25T20:07:36.593Z,1.43
2023-05-25T20:10:08.959Z,1.60
2023-05-25T20:12:41.151Z,1.57
2023-05-25T20:15:12.963Z,1.30
2023-05-25T20:17:44.988Z,1.40
2023-05-25T20:20:16.896Z,1.40
2023-05-25T20:22:48.829Z,1.40
2023-05-25T20:25:20.743Z,1.63
2023-05-25T20:27:52.576Z,1.63
2023-05-25T20:30:24.573Z,1.40
2023-05-25T20:32:57.150Z,1.83
2023-05-25T20:35:30.385Z,1.37
2023-05-25T20:38:02.426Z,2.00
2023-05-25T20:40:34.289Z,1.80
2023-05-25T20:43:06.088Z,1.50
2023-05-25T20:45:38.711Z,1.90
2023-05-25T20:48:10.557Z,1.83
2023-05-25T20:50:42.456Z,1.90
2023-05-25T20:53:14.251Z,2.10
2023-05-25T20:55:47.414Z,1.80
2023-05-25T20:58:19.256Z,2.10
2023-05-25T21:00:51.408Z,1.93
2023-05-25T21:03:23.675Z,1.77
2023-05-25T21:05:55.618Z,1.70
2023-05-25T21:08:27.661Z,1.70
2023-05-25T21:10:59.516Z,1.77
2023-05-25T21:13:31.284Z,1.93
2023-05-25T21:16:03.109Z,1.63
2023-05-25T21:18:34.986Z,1.87
2023-05-25T21:21:06.849Z,2.27
2023-05-25T21:23:38.624Z,2.20
2023-05-25T21:26:10.975Z,2.20
2023-05-25T21:28:42.759Z,1.90
2023-05-25T21:31:14.883Z,1.60
2023-05-25T21:33:49.450Z,1.73
2023-05-25T21:36:21.320Z,2.10
2023-05-25T21:38:53.134Z,2.17
2023-05-25T21:41:26.547Z,2.13
2023-05-25T21:43:58.318Z,1.73
2023-05-25T21:46:30.415Z,2.37
2023-05-25T21:49:02.278Z,2.00
2023-05-25T21:51:34.906Z,1.60
2023-05-25T21:54:06.741Z,2.30
2023-05-25T21:56:38.511Z,2.53
2023-05-25T21:59:10.412Z,1.93
2023-05-25T22:01:42.387Z,2.53
2023-05-25T22:04:14.257Z,2.53
2023-05-25T22:06:46.180Z,2.40
2023-05-25T22:09:18.222Z,1.70
2023-05-25T22:11:50.330Z,2.20
2023-05-25T22:14:22.168Z,2.63
2023-05-25T22:16:53.967Z,2.13
2023-05-25T22:19:25.885Z,2.20
2023-05-25T22:21:57.956Z,3.00
2023-05-25T22:24:29.725Z,2.50
2023-05-25T22:27:03.066Z,2.17
2023-05-25T22:29:35.127Z,2.17
2023-05-25T22:32:06.887Z,2.60
2023-05-25T22:34:38.639Z,2.60
2023-05-25T22:37:11.608Z,2.30
2023-05-25T22:39:43.561Z,2.20
2023-05-25T22:42:15.450Z,2.17
2023-05-25T22:44:49.380Z,2.40
2023-05-25T22:47:21.258Z,1.90
2023-05-25T22:49:53.120Z,2.83
2023-05-25T22:52:24.980Z,1.87
2023-05-25T22:54:56.788Z,2.40
2023-05-25T22:57:28.539Z,2.37
2023-05-25T23:00:00.376Z,2.20
2023-05-25T23:02:32.531Z,2.30
2023-05-25T23:05:05.243Z,2.13
2023-05-25T23:07:36.987Z,2.40
2023-05-25T23:10:09.158Z,2.80
2023-05-25T23:12:46.843Z,2.07
2023-05-25T23:15:18.681Z,2.03
2023-05-25T23:17:50.671Z,2.50
2023-05-25T23:20:22.493Z,2.37
2023-05-25T23:22:54.492Z,4.07
2023-05-25T23:25:26.277Z,2.50
2023-05-25T23:27:58.117Z,3.53
2023-05-25T23:30:30.457Z,2.63
2023-05-25T23:33:02.292Z,2.40
2023-05-25T23:35:34.840Z,2.23
2023-05-25T23:38:06.638Z,3.00
2023-05-25T23:40:38.622Z,2.47
2023-05-25T23:43:10.679Z,2.30
2023-05-25T23:45:42.559Z,2.20
2023-05-25T23:48:14.519Z,2.30
2023-05-25T23:50:46.354Z,2.23
2023-05-25T23:53:18.130Z,2.13
2023-05-25T23:55:49.999Z,2.57
2023-05-25T23:58:21.757Z,2.60
